Time;durP1;ratioP1;P1;durP2;ratioP2;P2;SDS_P1;SDS_P2;PMS_P1;PMS_P2;Temp;Humidity;BMP_temperature;BMP_pressure;BME280_temperature;BME280_humidity;BME280_pressure;Samples;Min_cycle;Max_cycle;Signal;HPM_P1;HPM_P2
2023/11/24 00:01:47;;;;;;;4.25;0.80;;;9.20;99.90;;;;;;5047123;28;20053;-39
2023/11/24 00:04:13;;;;;;;9.75;1.33;;;9.30;99.90;;;;;;5046895;28;20545;-43
2023/11/24 00:06:38;;;;;;;7.00;1.10;;;9.30;99.90;;;;;;5047297;28;20045;-43
2023/11/24 00:09:04;;;;;;;10.77;1.40;;;9.30;99.90;;;;;;5046139;28;20076;-40
2023/11/24 00:11:30;;;;;;;6.00;1.38;;;9.30;99.90;;;;;;5046124;28;20503;-41
2023/11/24 00:13:56;;;;;;;9.75;0.90;;;9.20;99.90;;;;;;5045549;28;20067;-43
2023/11/24 00:16:22;;;;;;;5.78;0.65;;;9.20;99.90;;;;;;5044613;28;20105;-41
2023/11/24 00:18:48;;;;;;;6.97;1.17;;;9.20;99.90;;;;;;5046909;28;20033;-42
2023/11/24 00:21:15;;;;;;;4.25;0.32;;;9.30;99.90;;;;;;5046714;28;20084;-40
2023/11/24 00:23:40;;;;;;;9.98;0.55;;;9.20;99.90;;;;;;5046348;28;20026;-41
2023/11/24 00:26:07;;;;;;;1.88;0.55;;;9.20;99.90;;;;;;5046629;28;20100;-40
2023/11/24 00:28:36;;;;;;;4.10;0.65;;;9.20;99.90;;;;;;5047022;28;20017;-47
2023/11/24 00:31:05;;;;;;;9.43;1.30;;;9.20;99.90;;;;;;5046922;28;20022;-40
2023/11/24 00:33:31;;;;;;;2.83;0.57;;;9.20;99.90;;;;;;5046621;28;20510;-40
2023/11/24 00:35:57;;;;;;;7.90;0.60;;;9.10;99.90;;;;;;5046580;28;20123;-41
2023/11/24 00:38:23;;;;;;;4.70;0.52;;;9.10;99.90;;;;;;5046624;28;20025;-42
2023/11/24 00:40:50;;;;;;;5.32;0.70;;;9.00;99.90;;;;;;5046126;28;20021;-40
2023/11/24 00:43:16;;;;;;;6.07;0.40;;;9.00;99.90;;;;;;5046842;28;20130;-40
2023/11/24 00:45:42;;;;;;;7.78;1.35;;;9.00;99.90;;;;;;5046360;28;20030;-42
2023/11/24 00:48:08;;;;;;;4.25;1.00;;;9.00;99.90;;;;;;5046430;28;20013;-41
2023/11/24 00:50:34;;;;;;;6.30;0.93;;;9.00;99.90;;;;;;5046343;28;20032;-41
2023/11/24 00:53:01;;;;;;;14.95;2.25;;;9.00;99.90;;;;;;5046602;28;20021;-40
2023/11/24 00:55:27;;;;;;;7.25;0.63;;;9.00;99.90;;;;;;5046076;28;20044;-48
2023/11/24 00:57:53;;;;;;;6.28;1.00;;;9.00;99.90;;;;;;5046433;28;20053;-42
2023/11/24 01:00:19;;;;;;;6.45;0.60;;;9.00;99.90;;;;;;5046162;28;20051;-43
2023/11/24 01:02:45;;;;;;;3.97;1.27;;;9.00;99.90;;;;;;5046298;28;20075;-40
2023/11/24 01:05:11;;;;;;;3.22;1.30;;;9.10;99.90;;;;;;5045793;28;20067;-41
2023/11/24 01:07:37;;;;;;;3.58;1.13;;;9.10;99.90;;;;;;5046380;28;20037;-48
2023/11/24 01:10:03;;;;;;;6.45;1.92;;;9.00;99.90;;;;;;5044881;28;20029;-55
2023/11/24 01:12:28;;;;;;;6.03;0.47;;;8.90;99.90;;;;;;5046309;28;20064;-43
2023/11/24 01:14:54;;;;;;;3.03;1.13;;;9.00;99.90;;;;;;5045972;28;20021;-41
2023/11/24 01:17:21;;;;;;;7.18;1.33;;;9.00;99.90;;;;;;5045776;28;20128;-41
2023/11/24 01:19:46;;;;;;;9.02;0.93;;;9.10;99.90;;;;;;5045773;28;20032;-42
2023/11/24 01:22:12;;;;;;;11.32;0.82;;;9.00;99.90;;;;;;5046082;28;20025;-40
2023/11/24 01:24:38;;;;;;;12.30;1.02;;;9.00;99.90;;;;;;5044567;28;20025;-42
2023/11/24 01:27:04;;;;;;;7.88;0.95;;;9.10;99.90;;;;;;5046043;28;20024;-40
2023/11/24 01:29:31;;;;;;;8.70;0.93;;;9.10;99.90;;;;;;5045742;28;20029;-43
2023/11/24 01:31:57;;;;;;;7.65;1.48;;;9.10;99.90;;;;;;5040620;28;20021;-38
2023/11/24 01:34:23;;;;;;;2.65;0.60;;;9.00;99.90;;;;;;5044386;28;20025;-40
2023/11/24 01:36:50;;;;;;;5.25;0.70;;;9.00;99.90;;;;;;5043985;28;20025;-42
2023/11/24 01:39:17;;;;;;;8.90;1.15;;;9.00;99.90;;;;;;5045326;28;20028;-54
2023/11/24 01:41:43;;;;;;;11.18;1.42;;;9.00;99.90;;;;;;5045984;28;20021;-44
2023/11/24 01:44:09;;;;;;;4.15;1.20;;;9.00;99.90;;;;;;5044280;28;20030;-45
2023/11/24 01:46:35;;;;;;;6.90;0.73;;;9.00;99.90;;;;;;5045919;28;20501;-40
2023/11/24 01:49:02;;;;;;;2.35;0.50;;;8.90;99.90;;;;;;5045373;28;20030;-37
2023/11/24 01:51:28;;;;;;;6.38;0.60;;;8.90;99.90;;;;;;5044281;28;20053;-41
2023/11/24 01:53:54;;;;;;;10.45;0.52;;;8.90;99.90;;;;;;5045163;28;20021;-41
2023/11/24 01:56:21;;;;;;;2.72;0.73;;;8.80;99.90;;;;;;5046108;28;20055;-41
2023/11/24 01:58:47;;;;;;;4.47;0.63;;;8.90;99.90;;;;;;5045741;28;20030;-39
2023/11/24 02:01:13;;;;;;;1.95;0.43;;;8.80;99.90;;;;;;5045480;28;20052;-43
2023/11/24 02:03:40;;;;;;;3.95;0.90;;;8.80;99.90;;;;;;5045055;28;20113;-40
2023/11/24 02:06:08;;;;;;;4.72;0.68;;;8.70;99.90;;;;;;5044934;28;20030;-40
2023/11/24 02:08:34;;;;;;;7.13;0.50;;;8.60;99.90;;;;;;5045376;28;20021;-38
2023/11/24 02:11:00;;;;;;;1.90;0.63;;;8.60;99.90;;;;;;5044238;28;20028;-63
2023/11/24 02:13:27;;;;;;;4.75;0.95;;;8.60;99.90;;;;;;5045656;28;20018;-40
2023/11/24 02:15:53;;;;;;;5.22;1.17;;;8.60;99.90;;;;;;5045367;28;20499;-43
2023/11/24 02:18:19;;;;;;;11.07;1.17;;;8.60;99.90;;;;;;5045227;28;20033;-41
2023/11/24 02:20:46;;;;;;;6.10;1.60;;;8.50;99.90;;;;;;5044266;28;20025;-38
2023/11/24 02:23:11;;;;;;;6.28;0.55;;;8.50;99.90;;;;;;5045269;28;20064;-40
2023/11/24 02:25:37;;;;;;;9.02;0.50;;;8.40;99.90;;;;;;5045009;28;20033;-44
2023/11/24 02:28:03;;;;;;;4.50;0.82;;;8.40;99.90;;;;;;5045426;28;20032;-44
2023/11/24 02:30:29;;;;;;;7.05;1.15;;;8.40;99.90;;;;;;5045406;28;20022;-50
2023/11/24 02:32:55;;;;;;;3.60;0.32;;;8.50;99.90;;;;;;5045047;28;20018;-41
2023/11/24 02:35:21;;;;;;;2.50;0.20;;;8.40;99.90;;;;;;5045403;28;20025;-43
2023/11/24 02:37:46;;;;;;;5.97;0.57;;;8.40;99.90;;;;;;5045132;28;20462;-41
2023/11/24 02:40:12;;;;;;;8.68;1.08;;;8.30;99.90;;;;;;5045305;28;20026;-39
2023/11/24 02:42:39;;;;;;;4.50;0.60;;;8.30;99.90;;;;;;5043706;28;20037;-41
2023/11/24 02:45:05;;;;;;;5.35;0.63;;;8.30;99.90;;;;;;5045006;28;20085;-44
2023/11/24 02:47:31;;;;;;;5.55;0.43;;;8.30;99.90;;;;;;5047612;28;20063;-40
2023/11/24 02:49:57;;;;;;;3.20;0.77;;;8.30;99.90;;;;;;5048974;28;20021;-41
2023/11/24 02:52:23;;;;;;;7.88;0.55;;;8.20;99.90;;;;;;5048688;28;20025;-43
2023/11/24 02:54:52;;;;;;;3.30;0.30;;;8.20;99.90;;;;;;5047945;28;20037;-41
2023/11/24 02:57:18;;;;;;;1.38;0.68;;;8.10;99.90;;;;;;5048907;28;20475;-42
2023/11/24 02:59:44;;;;;;;9.45;0.47;;;8.10;99.90;;;;;;5048191;28;20111;-41
2023/11/24 03:02:10;;;;;;;10.48;1.10;;;8.10;99.90;;;;;;5048104;28;20025;-43
2023/11/24 03:04:37;;;;;;;7.53;0.60;;;8.10;99.90;;;;;;5048884;28;20029;-44
2023/11/24 03:07:09;;;;;;;9.90;1.77;;;8.10;99.90;;;;;;5048742;28;20025;-41
2023/11/24 03:09:35;;;;;;;8.82;1.55;;;8.10;99.90;;;;;;5048703;28;20026;-42
2023/11/24 03:12:02;;;;;;;6.43;0.98;;;8.20;99.90;;;;;;5063339;28;20049;-44
2023/11/24 03:14:29;;;;;;;9.27;1.10;;;8.20;99.90;;;;;;5047786;28;20475;-46
2023/11/24 03:16:55;;;;;;;6.20;1.38;;;8.30;99.90;;;;;;5048042;28;20555;-42
2023/11/24 03:19:40;;;;;;;7.55;0.90;;;8.40;99.90;;;;;;5047693;28;20029;-39
2023/11/24 03:22:07;;;;;;;7.15;1.00;;;8.40;99.90;;;;;;5048316;28;20029;-41
2023/11/24 03:24:32;;;;;;;8.65;0.88;;;8.40;99.90;;;;;;5047863;28;20025;-41
2023/11/24 03:26:58;;;;;;;10.30;1.15;;;8.30;99.90;;;;;;5048228;28;20061;-46
2023/11/24 03:29:23;;;;;;;8.57;1.23;;;8.30;99.90;;;;;;5047977;28;20021;-41
2023/11/24 03:31:49;;;;;;;8.85;1.67;;;8.20;99.90;;;;;;5047826;28;20052;-41
2023/11/24 03:34:15;;;;;;;15.65;1.23;;;8.20;99.90;;;;;;5046369;28;20021;-42
2023/11/24 03:36:40;;;;;;;9.25;1.33;;;8.20;99.90;;;;;;5048032;28;20480;-40
2023/11/24 03:39:06;;;;;;;2.38;0.60;;;8.20;99.90;;;;;;5047929;28;20025;-44
2023/11/24 03:41:31;;;;;;;1.80;0.93;;;8.20;99.90;;;;;;5047697;28;20491;-42
2023/11/24 03:43:57;;;;;;;3.30;0.77;;;8.10;99.90;;;;;;5047925;28;20021;-41
2023/11/24 03:46:23;;;;;;;8.25;1.05;;;8.20;99.90;;;;;;5047924;28;20017;-40
2023/11/24 03:48:48;;;;;;;3.67;0.65;;;8.10;99.90;;;;;;5046855;28;20026;-41
2023/11/24 03:51:18;;;;;;;8.02;1.08;;;8.10;99.90;;;;;;5047828;28;20030;-48
2023/11/24 03:53:44;;;;;;;9.32;0.65;;;8.10;99.90;;;;;;5046301;28;20026;-47
2023/11/24 03:56:09;;;;;;;8.38;0.98;;;8.10;99.90;;;;;;5047242;28;20124;-41
2023/11/24 03:58:35;;;;;;;5.43;1.52;;;8.10;99.90;;;;;;5046597;28;20041;-45
2023/11/24 04:01:01;;;;;;;3.38;0.75;;;8.10;99.90;;;;;;5047634;28;20040;-41
2023/11/24 04:03:27;;;;;;;9.10;1.40;;;8.10;99.90;;;;;;5047178;28;20025;-43
2023/11/24 04:05:52;;;;;;;6.10;0.95;;;7.90;99.90;;;;;;5047011;28;20106;-41
2023/11/24 04:08:18;;;;;;;10.30;0.95;;;7.90;99.90;;;;;;5047430;28;20036;-49
2023/11/24 04:10:44;;;;;;;5.63;0.93;;;7.80;99.90;;;;;;5047367;28;20064;-45
2023/11/24 04:13:09;;;;;;;7.43;1.30;;;7.80;99.90;;;;;;5047107;28;20392;-43
2023/11/24 04:15:35;;;;;;;11.60;1.05;;;7.80;99.90;;;;;;5046813;28;20050;-40
2023/11/24 04:18:01;;;;;;;16.38;1.20;;;7.80;99.90;;;;;;5046893;28;20060;-47
2023/11/24 04:20:26;;;;;;;6.70;0.90;;;7.80;99.90;;;;;;5047228;28;20472;-43
2023/11/24 04:22:52;;;;;;;11.20;1.25;;;7.90;99.90;;;;;;5046830;28;20021;-43
2023/11/24 04:25:18;;;;;;;5.18;0.85;;;7.90;99.90;;;;;;5046966;28;20048;-42
2023/11/24 04:27:44;;;;;;;6.50;1.50;;;7.90;99.90;;;;;;5047070;28;20024;-43
2023/11/24 04:30:10;;;;;;;10.80;1.75;;;7.90;99.90;;;;;;5046860;28;20021;-44
2023/11/24 04:32:36;;;;;;;6.75;0.95;;;8.00;99.90;;;;;;5046265;28;20063;-43
2023/11/24 04:35:02;;;;;;;11.55;0.70;;;8.00;99.90;;;;;;5046943;28;20029;-55
2023/11/24 04:37:27;;;;;;;5.60;1.23;;;8.00;99.90;;;;;;5046876;28;20108;-56
2023/11/24 04:39:55;;;;;;;2.45;0.77;;;8.00;99.90;;;;;;5046810;28;20021;-55
2023/11/24 04:42:22;;;;;;;4.50;0.85;;;7.90;99.90;;;;;;5046331;28;20021;-65
2023/11/24 04:44:47;;;;;;;3.35;0.57;;;7.60;99.90;;;;;;5046653;28;20060;-52
2023/11/24 04:47:13;;;;;;;10.02;1.52;;;7.40;99.90;;;;;;5046392;28;20009;-52
2023/11/24 04:49:39;;;;;;;4.45;0.60;;;7.20;99.90;;;;;;5046173;28;20048;-53
2023/11/24 04:52:05;;;;;;;5.93;1.15;;;7.10;99.90;;;;;;5046420;28;20029;-55
2023/11/24 04:54:30;;;;;;;10.52;1.10;;;7.10;99.90;;;;;;5046760;28;20033;-54
2023/11/24 04:56:56;;;;;;;4.82;0.85;;;7.10;99.90;;;;;;5046546;28;20064;-51
2023/11/24 04:59:23;;;;;;;7.70;1.02;;;7.10;99.90;;;;;;5046348;28;20037;-55
2023/11/24 05:01:49;;;;;;;3.25;0.50;;;7.10;99.90;;;;;;5044873;28;20075;-54
2023/11/24 05:04:15;;;;;;;11.65;1.10;;;7.10;99.90;;;;;;5045806;28;20033;-54
2023/11/24 05:06:41;;;;;;;3.78;1.00;;;7.10;99.90;;;;;;5046093;28;20024;-45
2023/11/24 05:09:07;;;;;;;5.03;0.95;;;7.10;99.90;;;;;;5046157;28;20084;-41
2023/11/24 05:11:33;;;;;;;6.97;1.02;;;7.20;99.90;;;;;;5046276;28;20021;-45
2023/11/24 05:13:59;;;;;;;8.80;0.98;;;7.30;99.90;;;;;;5046072;28;20052;-40
2023/11/24 05:16:26;;;;;;;7.80;1.63;;;7.30;99.90;;;;;;5045529;28;20041;-40
2023/11/24 05:18:52;;;;;;;4.40;0.95;;;7.30;99.90;;;;;;5045969;28;20033;-41
2023/11/24 05:21:18;;;;;;;8.35;1.63;;;7.40;99.90;;;;;;5046216;28;20495;-41
2023/11/24 05:23:44;;;;;;;11.30;1.27;;;7.40;99.90;;;;;;5045690;28;20025;-40
2023/11/24 05:26:10;;;;;;;9.02;1.25;;;7.40;99.90;;;;;;5043597;28;20413;-62
2023/11/24 05:28:36;;;;;;;12.50;1.25;;;7.40;99.90;;;;;;5025147;28;20026;-51
2023/11/24 05:31:04;;;;;;;8.52;0.95;;;7.50;99.90;;;;;;5026916;28;20018;-55
2023/11/24 05:33:30;;;;;;;3.97;1.23;;;7.50;99.90;;;;;;5045065;28;20029;-55
2023/11/24 05:35:58;;;;;;;13.90;1.48;;;7.50;99.90;;;;;;5045408;28;20021;-56
2023/11/24 05:38:24;;;;;;;7.70;0.85;;;7.50;99.90;;;;;;5045888;28;20044;-53
2023/11/24 05:40:49;;;;;;;5.63;1.17;;;7.50;99.90;;;;;;5045804;28;20021;-56
2023/11/24 05:43:16;;;;;;;4.85;1.08;;;7.50;99.90;;;;;;5045421;28;20033;-54
2023/11/24 05:45:42;;;;;;;11.10;1.33;;;7.50;99.90;;;;;;5045552;28;20025;-41
2023/11/24 05:48:07;;;;;;;8.88;1.55;;;7.40;99.90;;;;;;5045876;28;20053;-42
2023/11/24 05:50:33;;;;;;;9.70;2.22;;;7.30;99.90;;;;;;5045417;28;20021;-43
2023/11/24 05:52:58;;;;;;;4.78;0.47;;;7.20;99.90;;;;;;5044094;28;20094;-41
2023/11/24 05:55:24;;;;;;;12.20;1.83;;;7.20;99.90;;;;;;5045339;28;20032;-43
2023/11/24 05:57:50;;;;;;;10.88;0.98;;;7.20;99.90;;;;;;5045786;28;20029;-40
2023/11/24 06:00:18;;;;;;;3.20;0.63;;;7.10;99.90;;;;;;5045717;28;20026;-51
2023/11/24 06:02:44;;;;;;;;;;;7.10;99.90;;;;;;5045847;28;20088;-42
2023/11/24 06:05:11;;;;;;;5.45;0.80;;;7.10;99.90;;;;;;5045158;28;20287;-40
2023/11/24 06:07:39;;;;;;;12.43;1.15;;;7.00;99.90;;;;;;5045447;28;20047;-39
2023/11/24 06:10:06;;;;;;;9.77;0.93;;;6.90;99.90;;;;;;5045366;28;20022;-42
2023/11/24 06:12:32;;;;;;;13.55;1.13;;;6.80;99.90;;;;;;5043826;28;20026;-49
2023/11/24 06:14:57;;;;;;;17.30;1.23;;;6.80;99.90;;;;;;5045225;28;20025;-43
2023/11/24 06:17:23;;;;;;;4.32;0.77;;;6.70;99.90;;;;;;5043379;28;20052;-42
2023/11/24 06:19:49;;;;;;;14.32;1.35;;;6.70;99.90;;;;;;5045318;28;20403;-39
2023/11/24 06:22:14;;;;;;;6.53;1.08;;;6.80;99.90;;;;;;5047928;28;20077;-39
2023/11/24 06:24:40;;;;;;;10.55;0.80;;;6.80;99.90;;;;;;5049340;28;20522;-36
2023/11/24 06:27:06;;;;;;;5.53;0.60;;;6.80;99.90;;;;;;5049060;28;20018;-39
2023/11/24 06:29:32;;;;;;;10.73;0.70;;;6.70;99.90;;;;;;5048951;28;20026;-41
2023/11/24 06:31:57;;;;;;;3.85;0.40;;;6.60;99.90;;;;;;5048339;28;20032;-41
2023/11/24 06:34:24;;;;;;;8.18;0.85;;;6.50;99.90;;;;;;5048527;28;20030;-41
2023/11/24 06:36:50;;;;;;;8.18;1.02;;;6.40;99.90;;;;;;5048888;28;20459;-41
2023/11/24 06:39:19;;;;;;;6.53;1.17;;;6.40;99.90;;;;;;5049135;28;20028;-40
2023/11/24 06:41:47;;;;;;;6.30;1.58;;;6.40;99.90;;;;;;5049217;28;20029;-39
2023/11/24 06:44:13;;;;;;;;;;;6.40;99.90;;;;;;5064873;28;20025;-41
2023/11/24 06:46:39;;;;;;;9.93;1.08;;;6.40;99.90;;;;;;5048569;28;19909;-42
2023/11/24 06:49:06;;;;;;;8.85;1.00;;;6.50;99.90;;;;;;5048653;28;20021;-40
2023/11/24 06:51:32;;;;;;;9.65;1.15;;;6.40;99.90;;;;;;5048630;28;20025;-41
2023/11/24 06:53:58;;;;;;;4.07;0.82;;;6.40;99.90;;;;;;5048542;28;20060;-39
2023/11/24 06:56:29;;;;;;;6.10;0.60;;;6.50;99.90;;;;;;5048597;28;20476;-40
2023/11/24 06:58:55;;;;;;;13.85;3.08;;;6.50;99.90;;;;;;5048820;28;20025;-48
2023/11/24 07:01:31;;;;;;;15.23;1.35;;;6.50;99.90;;;;;;5048250;28;20515;-46
2023/11/24 07:04:03;;;;;;;6.70;1.17;;;6.60;99.90;;;;;;5047817;28;20034;-54
2023/11/24 07:06:30;;;;;;;17.08;1.35;;;6.70;99.90;;;;;;5048747;28;20021;-55
2023/11/24 07:08:56;;;;;;;3.30;1.13;;;6.80;99.90;;;;;;5047906;28;20026;-53
2023/11/24 07:11:22;;;;;;;11.38;1.30;;;6.80;99.90;;;;;;5048435;28;20029;-64
2023/11/24 07:13:49;;;;;;;13.15;1.60;;;6.90;99.90;;;;;;5047872;28;20471;-53
2023/11/24 07:16:14;;;;;;;12.30;1.63;;;6.90;99.90;;;;;;5047969;28;20033;-54
2023/11/24 07:18:40;;;;;;;6.25;1.35;;;7.00;99.90;;;;;;5047732;28;20052;-55
2023/11/24 07:21:06;;;;;;;9.38;1.40;;;7.00;99.90;;;;;;5048491;28;20061;-55
2023/11/24 07:23:32;;;;;;;10.10;1.52;;;7.00;99.90;;;;;;5048245;28;20025;-53
2023/11/24 07:25:58;;;;;;;12.45;1.55;;;6.90;99.90;;;;;;5047993;28;20416;-53
2023/11/24 07:28:24;;;;;;;6.95;0.65;;;6.90;99.90;;;;;;5047776;28;20037;-54
2023/11/24 07:30:50;;;;;;;12.00;1.42;;;7.00;99.90;;;;;;5031093;28;20448;-53
2023/11/24 07:33:16;;;;;;;4.97;1.38;;;7.00;99.90;;;;;;5048030;28;20625;-53
2023/11/24 07:35:43;;;;;;;10.70;1.63;;;7.00;99.90;;;;;;5048022;28;20073;-51
2023/11/24 07:38:10;;;;;;;10.05;1.48;;;7.00;99.90;;;;;;5047450;28;20032;-55
2023/11/24 07:40:35;;;;;;;8.30;1.30;;;7.00;99.90;;;;;;5047838;28;20025;-55
2023/11/24 07:43:01;;;;;;;3.20;0.70;;;7.00;99.90;;;;;;5046058;28;20029;-54
2023/11/24 07:45:27;;;;;;;5.57;0.68;;;7.00;99.90;;;;;;5047629;28;20034;-55
2023/11/24 07:47:53;;;;;;;6.90;1.63;;;7.00;99.90;;;;;;5047381;28;20167;-44
2023/11/24 07:50:19;;;;;;;5.80;1.23;;;6.90;99.90;;;;;;5047824;28;20029;-39
2023/11/24 07:52:44;;;;;;;5.82;1.00;;;7.00;99.90;;;;;;5047827;28;20025;-40
2023/11/24 07:55:13;;;;;;;3.05;0.90;;;7.00;99.90;;;;;;5046866;28;20033;-40
2023/11/24 07:57:39;;;;;;;8.10;1.58;;;7.00;99.90;;;;;;5045378;28;20021;-41
2023/11/24 08:00:09;;;;;;;13.80;0.80;;;7.00;99.90;;;;;;5047068;28;20029;-42
2023/11/24 08:02:35;;;;;;;5.18;0.63;;;7.10;99.90;;;;;;5046810;28;20041;-37
2023/11/24 08:05:01;;;;;;;2.78;0.38;;;7.10;99.90;;;;;;5047254;28;20041;-41
2023/11/24 08:07:26;;;;;;;5.38;0.82;;;7.10;99.90;;;;;;5047257;28;20083;-42
2023/11/24 08:09:52;;;;;;;2.20;0.52;;;7.10;99.90;;;;;;5047357;28;20391;-42
2023/11/24 08:12:17;;;;;;;5.90;0.73;;;7.00;99.90;;;;;;5046869;28;20022;-42
2023/11/24 08:14:43;;;;;;;4.50;1.10;;;6.90;99.90;;;;;;5046720;28;20032;-42
2023/11/24 08:17:09;;;;;;;7.03;0.70;;;6.90;99.90;;;;;;5046475;28;20053;-41
2023/11/24 08:19:36;;;;;;;7.93;1.05;;;6.90;99.90;;;;;;5047018;28;20080;-39
2023/11/24 08:22:01;;;;;;;9.10;0.60;;;6.80;99.90;;;;;;5046562;28;20018;-41
2023/11/24 08:24:27;;;;;;;1.80;0.75;;;6.70;99.90;;;;;;5046324;28;20084;-43
2023/11/24 08:26:52;;;;;;;7.00;1.05;;;6.60;99.90;;;;;;5047024;28;20515;-40
2023/11/24 08:29:18;;;;;;;0.82;0.28;;;6.60;99.90;;;;;;5046403;28;20014;-41
2023/11/24 08:31:47;;;;;;;6.07;0.45;;;6.50;99.90;;;;;;5046671;28;20052;-48
2023/11/24 08:34:13;;;;;;;1.10;0.30;;;6.50;99.90;;;;;;5042096;28;20030;-41
2023/11/24 08:36:40;;;;;;;4.32;0.25;;;6.50;99.90;;;;;;5046197;28;20052;-46
2023/11/24 08:39:11;;;;;;;8.57;0.50;;;6.50;99.90;;;;;;5046726;28;20495;-52
2023/11/24 08:41:38;;;;;;;3.45;0.57;;;6.50;99.90;;;;;;5045956;28;20501;-43
2023/11/24 08:44:04;;;;;;;4.90;0.38;;;6.40;99.90;;;;;;5045902;28;20030;-40
2023/11/24 08:46:30;;;;;;;10.10;0.40;;;6.30;99.90;;;;;;5044755;28;20025;-40
2023/11/24 08:48:56;;;;;;;5.85;1.42;;;6.30;99.90;;;;;;5045949;28;20079;-40
2023/11/24 08:51:21;;;;;;;1.77;0.30;;;6.10;99.90;;;;;;5045477;28;20052;-40
2023/11/24 08:53:47;;;;;;;0.50;0.47;;;6.00;99.90;;;;;;5046277;28;20414;-49
2023/11/24 08:56:13;;;;;;;1.50;0.28;;;6.00;99.90;;;;;;5045274;28;20014;-41
2023/11/24 08:58:38;;;;;;;2.35;0.35;;;6.00;99.90;;;;;;5045891;28;20030;-40
2023/11/24 09:01:05;;;;;;;4.30;0.30;;;6.20;99.90;;;;;;5046084;28;20034;-40
2023/11/24 09:03:31;;;;;;;1.27;0.50;;;6.30;99.90;;;;;;5046174;28;20026;-39
2023/11/24 09:05:57;;;;;;;4.68;0.45;;;6.50;99.90;;;;;;5045011;28;20471;-39
2023/11/24 09:08:23;;;;;;;7.97;0.73;;;6.60;99.90;;;;;;5046246;28;20037;-39
2023/11/24 09:10:49;;;;;;;6.00;0.43;;;6.70;99.90;;;;;;5045244;28;20045;-40
2023/11/24 09:13:14;;;;;;;7.72;0.55;;;6.70;99.90;;;;;;5037487;28;20032;-40
2023/11/24 09:15:41;;;;;;;3.53;0.80;;;6.70;99.90;;;;;;5045610;28;20029;-38
2023/11/24 09:18:07;;;;;;;7.38;0.80;;;6.60;99.90;;;;;;5045646;28;20057;-41
2023/11/24 09:20:33;;;;;;;9.05;0.68;;;6.50;99.90;;;;;;5045830;28;20432;-43
2023/11/24 09:22:58;;;;;;;10.80;1.52;;;6.50;99.90;;;;;;5045570;28;20029;-42
2023/11/24 09:25:24;;;;;;;2.97;0.90;;;6.40;99.90;;;;;;5046095;28;20095;-39
2023/11/24 09:27:50;;;;;;;3.78;0.60;;;6.40;99.90;;;;;;5045324;28;20060;-40
2023/11/24 09:30:16;;;;;;;7.68;0.52;;;6.50;99.90;;;;;;5045283;28;20108;-41
2023/11/24 09:32:41;;;;;;;4.30;0.40;;;6.80;99.90;;;;;;5045007;28;20117;-39
2023/11/24 09:35:08;;;;;;;1.10;0.70;;;6.80;99.90;;;;;;5045469;28;20029;-39
2023/11/24 09:37:34;;;;;;;4.35;0.50;;;6.60;99.90;;;;;;5045079;28;20463;-40
2023/11/24 09:40:01;;;;;;;1.65;0.32;;;6.40;99.90;;;;;;5044363;28;20033;-47
2023/11/24 09:42:44;;;;;;;1.15;0.57;;;6.40;99.90;;;;;;5045651;28;20041;-39
2023/11/24 09:45:15;;;;;;;2.30;0.55;;;6.30;99.90;;;;;;5044551;28;20036;-40
2023/11/24 09:47:51;;;;;;;3.95;0.30;;;6.40;99.90;;;;;;5043109;28;20033;-41
2023/11/24 09:50:23;;;;;;;2.05;0.60;;;6.60;99.90;;;;;;5045315;28;20429;-40
2023/11/24 09:52:50;;;;;;;7.00;1.60;;;6.70;99.90;;;;;;5045941;28;20021;-43
2023/11/24 09:55:17;;;;;;;8.20;0.75;;;6.70;99.90;;;;;;5045535;28;20386;-39
2023/11/24 09:57:43;;;;;;;13.18;1.27;;;6.70;99.90;;;;;;5048701;28;20026;-40
2023/11/24 10:00:10;;;;;;;5.95;0.90;;;6.60;99.90;;;;;;5049511;28;20022;-44
2023/11/24 10:02:36;;;;;;;5.20;0.35;;;6.70;99.90;;;;;;5049609;28;20030;-39
2023/11/24 10:05:07;;;;;;;6.00;0.68;;;6.70;99.90;;;;;;5049752;28;20085;-40
2023/11/24 10:07:34;;;;;;;5.03;0.60;;;6.80;99.90;;;;;;5048071;28;20030;-40
2023/11/24 10:10:01;;;;;;;7.15;1.42;;;7.00;99.90;;;;;;5049142;28;20036;-43
2023/11/24 10:12:28;;;;;;;9.93;1.33;;;7.10;99.90;;;;;;5047874;28;20018;-38
2023/11/24 10:14:54;;;;;;;8.50;0.88;;;7.40;99.90;;;;;;5048149;28;20034;-38
2023/11/24 10:17:23;;;;;;;11.23;1.42;;;7.50;99.90;;;;;;5029591;28;20391;-44
2023/11/24 10:19:51;;;;;;;6.35;1.25;;;7.10;99.90;;;;;;5045441;28;20498;-58
2023/11/24 10:22:19;;;;;;;8.02;1.23;;;6.70;99.90;;;;;;5048972;28;20040;-41
2023/11/24 10:24:44;;;;;;;;;;;6.50;99.90;;;;;;5049418;28;20029;-42
2023/11/24 10:27:20;;;;;;;17.85;1.27;;;6.40;99.90;;;;;;5049391;28;19913;-41
2023/11/24 10:29:49;;;;;;;6.05;1.27;;;6.30;99.90;;;;;;5046946;28;20033;-37
2023/11/24 10:32:16;;;;;;;5.18;0.88;;;6.10;99.90;;;;;;5049029;28;20072;-39
2023/11/24 10:34:43;;;;;;;7.00;1.00;;;5.90;99.90;;;;;;5048873;28;20472;-41
2023/11/24 10:37:20;;;;;;;4.73;0.83;;;5.80;99.90;;;;;;5049189;28;20033;-42
2023/11/24 10:39:47;;;;;;;3.45;0.73;;;5.70;99.90;;;;;;5048899;28;20116;-40
2023/11/24 10:42:19;;;;;;;7.95;0.50;;;5.70;99.90;;;;;;5048390;28;20033;-45
2023/11/24 10:44:49;;;;;;;4.18;0.70;;;5.70;99.90;;;;;;5031617;28;20025;-41
2023/11/24 10:47:22;;;;;;;5.63;0.80;;;5.90;99.90;;;;;;5048670;28;20467;-41
2023/11/24 10:49:57;;;;;;;9.93;1.33;;;6.10;99.90;;;;;;5048917;28;20032;-41
2023/11/24 10:52:31;;;;;;;2.53;0.90;;;6.40;99.90;;;;;;5047573;28;20036;-41
2023/11/24 10:55:03;;;;;;;7.18;0.80;;;6.40;99.90;;;;;;5048970;28;20032;-41
2023/11/24 10:57:32;;;;;;;6.25;1.08;;;6.40;99.90;;;;;;5029839;28;20025;-39
2023/11/24 10:59:58;;;;;;;6.40;0.52;;;6.30;99.90;;;;;;5047872;28;20056;-40
2023/11/24 11:02:25;;;;;;;9.23;0.98;;;6.30;99.90;;;;;;5047416;28;20435;-43
2023/11/24 11:05:00;;;;;;;6.53;1.07;;;6.40;99.90;;;;;;5048451;28;20052;-40
2023/11/24 11:07:53;;;;;;;15.10;1.48;;;6.60;99.90;;;;;;5028130;28;20041;-41
2023/11/24 11:10:26;;;;;;;11.05;1.40;;;6.70;99.90;;;;;;5031115;28;20067;-42
2023/11/24 11:12:53;;;;;;;3.55;1.33;;;6.80;99.90;;;;;;5048144;28;20488;-45
2023/11/24 11:15:28;;;;;;;9.60;1.25;;;6.90;99.90;;;;;;5048204;28;20100;-41
2023/11/24 11:18:13;;;;;;;9.15;1.00;;;7.10;99.90;;;;;;5046538;28;20045;-41
2023/11/24 11:20:40;;;;;;;23.05;2.10;;;7.00;99.90;;;;;;5048422;28;20041;-38
2023/11/24 11:23:14;;;;;;;10.48;1.88;;;7.00;99.90;;;;;;5048424;28;20029;-43
2023/11/24 11:25:46;;;;;;;4.70;1.33;;;6.90;99.90;;;;;;5048277;28;20033;-41
2023/11/24 11:28:17;;;;;;;12.93;1.70;;;6.90;99.90;;;;;;5046017;28;20037;-41
2023/11/24 11:30:48;;;;;;;20.42;1.30;;;6.80;99.90;;;;;;5047951;28;20029;-42
2023/11/24 11:33:14;;;;;;;12.93;1.45;;;6.90;99.90;;;;;;5047723;28;20043;-44
2023/11/24 11:35:44;;;;;;;11.10;1.42;;;7.10;99.90;;;;;;5048172;28;20456;-41
2023/11/24 11:38:12;;;;;;;19.73;1.85;;;7.30;99.90;;;;;;5047590;28;20030;-39
2023/11/24 11:40:38;;;;;;;;;;;7.40;99.90;;;;;;5048294;28;20112;-40
2023/11/24 11:43:09;;;;;;;20.30;1.58;;;7.40;99.90;;;;;;5047033;28;19916;-38
2023/11/24 11:46:00;;;;;;;17.27;1.77;;;7.40;99.90;;;;;;5047178;28;20026;-42
2023/11/24 11:48:35;;;;;;;11.02;1.20;;;7.70;99.90;;;;;;5046597;28;20048;-43
2023/11/24 11:51:05;;;;;;;6.97;1.42;;;7.80;99.90;;;;;;5047857;28;20059;-41
2023/11/24 11:53:33;;;;;;;13.80;1.60;;;7.70;99.90;;;;;;5046333;28;20108;-38
2023/11/24 11:56:00;;;;;;;16.63;1.95;;;7.70;99.90;;;;;;5047053;28;20029;-38
2023/11/24 11:58:28;;;;;;;6.18;1.67;;;7.80;99.90;;;;;;5047197;28;20650;-41
2023/11/24 12:00:54;;;;;;;22.52;2.72;;;8.00;99.90;;;;;;5047467;28;20036;-39
2023/11/24 12:03:22;;;;;;;19.35;1.73;;;8.00;99.90;;;;;;5046549;28;20028;-47
2023/11/24 12:05:50;;;;;;;7.63;1.20;;;8.00;99.90;;;;;;5047397;28;20089;-41
2023/11/24 12:08:22;;;;;;;9.68;1.67;;;8.10;99.90;;;;;;5047409;28;20061;-40
2023/11/24 12:10:49;;;;;;;13.20;1.50;;;8.10;99.90;;;;;;5047187;28;20081;-42
2023/11/24 12:13:15;;;;;;;10.55;1.45;;;8.20;99.90;;;;;;5046919;28;20033;-52
2023/11/24 12:15:44;;;;;;;9.20;1.50;;;8.30;99.90;;;;;;5046883;28;20040;-41
2023/11/24 12:18:16;;;;;;;12.25;1.35;;;8.30;99.90;;;;;;5046981;28;20111;-45
2023/11/24 12:20:44;;;;;;;17.35;2.08;;;8.40;99.90;;;;;;5046416;28;20029;-39
2023/11/24 12:23:10;;;;;;;13.38;1.25;;;8.60;99.90;;;;;;5047167;28;20041;-41
2023/11/24 12:25:36;;;;;;;14.77;2.03;;;8.70;99.90;;;;;;5046631;28;20085;-44
2023/11/24 12:28:10;;;;;;;18.38;1.67;;;8.50;99.90;;;;;;5045958;28;20025;-39
2023/11/24 12:30:43;;;;;;;21.00;1.98;;;8.60;99.90;;;;;;5046250;28;20014;-39
2023/11/24 12:33:18;;;;;;;16.48;1.48;;;8.70;99.90;;;;;;5047071;28;20025;-38
2023/11/24 12:35:52;;;;;;;19.65;1.92;;;8.80;99.90;;;;;;5046660;28;20445;-38
2023/11/24 12:38:21;;;;;;;14.40;2.17;;;8.70;99.90;;;;;;5046598;28;20033;-42
2023/11/24 12:40:49;;;;;;;11.63;2.05;;;8.70;99.90;;;;;;5046620;28;20037;-40
2023/11/24 12:43:15;;;;;;;15.70;2.05;;;8.70;99.90;;;;;;5045991;28;20029;-41
2023/11/24 12:45:41;;;;;;;13.02;1.67;;;8.30;99.90;;;;;;5046050;28;20079;-42
2023/11/24 12:48:27;;;;;;;14.32;1.80;;;8.00;99.90;;;;;;5033644;28;20030;-40
2023/11/24 12:50:56;;;;;;;9.65;1.80;;;7.90;99.90;;;;;;5025229;28;20034;-37
2023/11/24 12:53:23;;;;;;;17.60;2.53;;;7.90;99.90;;;;;;5039877;28;20021;-44
2023/11/24 12:55:49;;;;;;;8.07;1.80;;;8.00;99.90;;;;;;5046244;28;20029;-41